createdAt,value
2018-02-23T00:00:01.160Z,9.15
2018-02-23T00:02:30.309Z,9.77
2018-02-23T00:04:58.665Z,10.30
2018-02-23T00:07:26.972Z,9.40
2018-02-23T00:09:55.324Z,9.52
2018-02-23T00:12:23.638Z,8.80
2018-02-23T00:14:51.932Z,9.95
2018-02-23T00:17:20.836Z,9.40
2018-02-23T00:19:49.961Z,9.77
2018-02-23T00:22:18.274Z,10.65
2018-02-23T00:24:46.636Z,10.00
2018-02-23T00:27:14.962Z,10.25
2018-02-23T00:29:43.281Z,10.35
2018-02-23T00:32:11.615Z,10.93
2018-02-23T00:34:39.941Z,10.40
2018-02-23T00:37:08.272Z,12.23
2018-02-23T00:39:36.963Z,10.60
2018-02-23T00:42:06.031Z,10.90
2018-02-23T00:44:34.367Z,11.90
2018-02-23T00:47:02.755Z,13.43
2018-02-23T00:49:31.049Z,12.60
2018-02-23T00:51:59.353Z,13.05
2018-02-23T00:54:27.717Z,12.70
2018-02-23T00:56:56.815Z,13.20
2018-02-23T00:59:25.158Z,12.02
2018-02-23T01:01:53.823Z,13.55
2018-02-23T01:04:22.938Z,13.75
2018-02-23T01:06:51.261Z,13.25
2018-02-23T01:09:19.592Z,14.48
2018-02-23T01:11:47.912Z,15.93
2018-02-23T01:14:16.226Z,14.40
2018-02-23T01:16:45.329Z,14.80
2018-02-23T01:19:14.388Z,15.68
2018-02-23T01:21:42.699Z,15.90
2018-02-23T01:24:12.101Z,15.75
2018-02-23T01:26:41.189Z,16.90
2018-02-23T01:29:09.523Z,17.60
2018-02-23T01:31:37.861Z,16.87
2018-02-23T01:34:06.947Z,17.15
2018-02-23T01:36:35.273Z,18.10
2018-02-23T01:39:03.613Z,19.45
2018-02-23T01:41:31.950Z,18.65
2018-02-23T01:44:00.272Z,18.80
2018-02-23T01:46:29.585Z,16.95
2018-02-23T01:48:57.916Z,18.02
2018-02-23T01:51:26.223Z,18.12
2018-02-23T01:53:54.586Z,18.35
2018-02-23T01:56:22.926Z,19.42
2018-02-23T01:58:51.228Z,19.25
2018-02-23T02:01:19.599Z,19.80
2018-02-23T02:03:47.921Z,18.98
2018-02-23T02:06:17.016Z,19.42
2018-02-23T02:08:46.255Z,17.55
2018-02-23T02:11:14.592Z,18.20
2018-02-23T02:13:43.665Z,20.25
2018-02-23T02:16:12.028Z,20.23
2018-02-23T02:18:40.320Z,19.40
2018-02-23T02:21:08.644Z,20.90
2018-02-23T02:23:36.977Z,19.12
2018-02-23T02:26:05.340Z,19.60
2018-02-23T02:28:33.689Z,22.10
2018-02-23T02:31:02.513Z,21.77
2018-02-23T02:33:30.861Z,20.95
2018-02-23T02:35:59.177Z,19.90
2018-02-23T02:38:27.529Z,20.58
2018-02-23T02:40:55.859Z,21.55
2018-02-23T02:43:24.976Z,21.50
2018-02-23T02:45:53.297Z,20.67
2018-02-23T02:48:21.641Z,21.05
2018-02-23T02:50:49.969Z,20.90
2018-02-23T02:53:18.805Z,20.92
2018-02-23T02:55:47.133Z,20.00
2018-02-23T02:58:15.479Z,21.10
2018-02-23T03:00:43.856Z,22.58
2018-02-23T03:03:12.166Z,21.85
2018-02-23T03:05:40.510Z,22.10
2018-02-23T03:08:08.834Z,21.80
2018-02-23T03:10:37.147Z,22.30
2018-02-23T03:13:05.480Z,21.80
2018-02-23T03:15:34.044Z,20.67
2018-02-23T03:18:02.369Z,22.33
2018-02-23T03:20:31.443Z,21.55
2018-02-23T03:22:59.810Z,22.77
2018-02-23T03:25:28.163Z,21.45
2018-02-23T03:27:56.487Z,20.15
2018-02-23T03:30:24.841Z,21.90
2018-02-23T03:32:53.178Z,20.00
2018-02-23T03:35:21.512Z,20.02
2018-02-23T03:37:50.101Z,19.40
2018-02-23T03:40:18.420Z,19.15
2018-02-23T03:42:46.792Z,19.87
2018-02-23T03:45:15.889Z,19.65
2018-02-23T03:47:44.970Z,19.15
2018-02-23T03:50:14.051Z,19.42
2018-02-23T03:52:42.395Z,18.70
2018-02-23T03:55:10.728Z,19.52
2018-02-23T03:57:39.045Z,16.73
2018-02-23T04:00:07.904Z,16.27
2018-02-23T04:02:37.064Z,16.67
2018-02-23T04:05:05.381Z,16.27
2018-02-23T04:07:33.760Z,15.13
2018-02-23T04:10:02.827Z,14.40
2018-02-23T04:12:31.131Z,15.02
2018-02-23T04:14:59.464Z,13.98
2018-02-23T04:17:28.571Z,13.90
2018-02-23T04:19:56.923Z,12.75
2018-02-23T04:22:25.435Z,12.90
2018-02-23T04:24:53.756Z,12.30
2018-02-23T04:27:22.070Z,10.60
2018-02-23T04:29:50.413Z,9.95
2018-02-23T04:32:18.769Z,11.70
2018-02-23T04:34:47.086Z,10.45
2018-02-23T04:37:15.453Z,10.75
2018-02-23T04:39:43.744Z,11.70
2018-02-23T04:42:12.067Z,11.18
2018-02-23T04:44:40.929Z,9.75
2018-02-23T04:47:09.241Z,10.00
2018-02-23T04:49:37.549Z,10.35
2018-02-23T04:52:05.907Z,10.32
2018-02-23T04:54:35.003Z,10.07
2018-02-23T04:57:04.095Z,11.10
2018-02-23T04:59:33.200Z,11.07
2018-02-23T05:02:02.304Z,10.77
2018-02-23T05:04:31.387Z,10.15
2018-02-23T05:07:00.885Z,11.32
2018-02-23T05:09:29.960Z,10.45
2018-02-23T05:11:58.304Z,11.15
2018-02-23T05:14:26.663Z,9.45
2018-02-23T05:16:55.064Z,9.32
2018-02-23T05:19:23.379Z,9.45
2018-02-23T05:21:51.730Z,8.25
2018-02-23T05:24:20.054Z,9.20
2018-02-23T05:26:49.133Z,8.65
2018-02-23T05:29:18.001Z,9.15
2018-02-23T05:31:46.309Z,9.07
2018-02-23T05:34:14.780Z,9.43
2018-02-23T05:36:43.118Z,7.82
2018-02-23T05:39:11.531Z,7.62
2018-02-23T05:41:39.849Z,7.80
2018-02-23T05:44:09.273Z,7.32
2018-02-23T05:46:37.612Z,8.25
2018-02-23T05:49:05.965Z,9.10
2018-02-23T05:51:34.646Z,9.10
2018-02-23T05:54:02.999Z,7.87
2018-02-23T05:56:31.368Z,7.85
2018-02-23T05:59:00.512Z,8.20
2018-02-23T06:01:28.879Z,9.40
2018-02-23T06:03:57.215Z,7.78
2018-02-23T06:06:26.445Z,8.45
2018-02-23T06:08:54.753Z,8.25
2018-02-23T06:11:23.098Z,8.63
2018-02-23T06:13:51.584Z,8.23
2018-02-23T06:16:25.387Z,8.93
2018-02-23T06:18:58.135Z,8.55
2018-02-23T06:21:27.268Z,8.27
2018-02-23T06:23:55.629Z,7.90
2018-02-23T06:26:24.077Z,7.60
2018-02-23T06:28:53.168Z,8.30
2018-02-23T06:31:21.502Z,7.65
2018-02-23T06:33:50.093Z,7.90
2018-02-23T06:36:18.449Z,7.22
2018-02-23T06:38:46.742Z,7.57
2018-02-23T06:41:15.100Z,6.72
2018-02-23T06:43:44.173Z,7.20
2018-02-23T06:46:12.784Z,7.25
2018-02-23T06:48:41.093Z,7.78
2018-02-23T06:51:09.528Z,7.05
2018-02-23T06:53:37.850Z,7.00
2018-02-23T06:56:06.699Z,8.05
2018-02-23T06:58:35.016Z,7.05
2018-02-23T07:01:03.368Z,8.50
2018-02-23T07:03:31.716Z,8.38
2018-02-23T07:06:00.040Z,7.90
2018-02-23T07:08:28.339Z,7.28
2018-02-23T07:10:57.738Z,8.52
2018-02-23T07:13:26.070Z,7.90
2018-02-23T07:15:54.385Z,7.80
2018-02-23T07:18:22.959Z,8.20
2018-02-23T07:20:51.294Z,8.43
2018-02-23T07:23:20.424Z,9.52
2018-02-23T07:25:48.772Z,7.85
2018-02-23T07:28:17.889Z,8.80
2018-02-23T07:30:46.231Z,8.85
2018-02-23T07:33:14.589Z,8.60
2018-02-23T07:35:42.916Z,8.07
2018-02-23T07:38:12.016Z,7.75
2018-02-23T07:40:40.538Z,8.00
2018-02-23T07:43:08.857Z,8.50
2018-02-23T07:45:37.202Z,7.90
2018-02-23T07:48:05.593Z,9.10
2018-02-23T07:50:33.928Z,8.00
2018-02-23T07:53:02.277Z,8.00
2018-02-23T07:55:31.418Z,8.63
2018-02-23T07:57:59.741Z,7.30
2018-02-23T08:00:28.058Z,7.87
2018-02-23T08:02:56.494Z,9.57
2018-02-23T08:05:24.840Z,8.73
2018-02-23T08:07:53.141Z,9.70
2018-02-23T08:10:22.247Z,10.10
2018-02-23T08:12:50.601Z,10.03
2018-02-23T08:15:18.925Z,9.93
2018-02-23T08:17:48.023Z,10.77
2018-02-23T08:20:16.367Z,12.37
2018-02-23T08:22:44.715Z,11.53
2018-02-23T08:25:13.126Z,11.93
2018-02-23T08:27:41.435Z,12.47
2018-02-23T08:30:10.545Z,11.60
2018-02-23T08:32:38.979Z,13.40
2018-02-23T08:35:07.319Z,13.33
2018-02-23T08:37:35.649Z,14.03
2018-02-23T08:40:04.734Z,15.07
2018-02-23T08:42:33.056Z,14.50
2018-02-23T08:45:02.167Z,15.33
2018-02-23T08:47:30.591Z,14.90
2018-02-23T08:49:58.936Z,14.77
2018-02-23T08:52:27.270Z,14.77
2018-02-23T08:54:55.659Z,16.00
2018-02-23T08:57:24.754Z,16.57
2018-02-23T08:59:53.879Z,18.13
2018-02-23T09:02:22.243Z,16.73
2018-02-23T09:04:51.341Z,18.23
2018-02-23T09:07:20.440Z,19.63
2018-02-23T09:09:49.223Z,20.77
2018-02-23T09:12:18.298Z,18.87
2018-02-23T09:14:47.403Z,18.80
2018-02-23T09:17:15.747Z,21.40
2018-02-23T09:19:44.113Z,22.13
2018-02-23T09:22:12.456Z,21.43
2018-02-23T09:24:40.862Z,20.73
2018-02-23T09:27:09.157Z,22.80
2018-02-23T09:29:37.485Z,22.57
2018-02-23T09:35:12.557Z,22.70
2018-02-23T09:37:40.917Z,22.37
2018-02-23T09:40:10.006Z,21.50
2018-02-23T09:42:39.122Z,22.60
2018-02-23T09:45:07.474Z,21.13
2018-02-23T09:47:35.825Z,22.80
2018-02-23T09:50:04.200Z,21.40
2018-02-23T09:52:33.141Z,21.67
2018-02-23T09:55:02.223Z,20.20
2018-02-23T09:57:30.547Z,19.13
2018-02-23T09:59:58.913Z,19.37
2018-02-23T10:02:27.262Z,19.30
2018-02-23T10:04:55.645Z,18.87
2018-02-23T10:07:23.964Z,17.60
2018-02-23T10:09:52.289Z,20.52
2018-02-23T10:12:20.637Z,19.40
2018-02-23T10:14:49.476Z,18.85
2018-02-23T10:17:18.551Z,19.25
2018-02-23T10:19:46.910Z,19.95
2018-02-23T10:22:15.296Z,19.47
2018-02-23T10:24:43.632Z,20.37
2018-02-23T10:27:11.959Z,23.23
2018-02-23T10:29:40.635Z,24.70
2018-02-23T10:32:09.023Z,24.73
2018-02-23T10:34:37.425Z,24.67
2018-02-23T10:37:06.646Z,24.93
2018-02-23T10:39:34.996Z,25.50
2018-02-23T10:42:03.315Z,24.37
2018-02-23T10:44:31.714Z,26.53
2018-02-23T10:47:00.056Z,25.07
2018-02-23T10:49:29.141Z,26.20
2018-02-23T10:51:58.267Z,27.03
2018-02-23T10:54:26.618Z,25.57
2018-02-23T10:56:54.941Z,26.40
2018-02-23T10:59:23.563Z,26.87
2018-02-23T11:01:51.955Z,25.97
2018-02-23T11:04:21.072Z,26.40
2018-02-23T11:06:49.445Z,25.50
2018-02-23T11:09:17.785Z,25.30
2018-02-23T11:11:46.131Z,24.73
2018-02-23T11:14:14.469Z,25.17
2018-02-23T11:16:42.809Z,27.73
2018-02-23T11:19:11.136Z,25.73
2018-02-23T11:21:39.929Z,26.90
2018-02-23T11:24:08.252Z,26.87
2018-02-23T11:26:36.572Z,25.43
2018-02-23T11:29:05.688Z,26.10
2018-02-23T11:31:34.018Z,26.80
2018-02-23T11:34:02.326Z,27.47
2018-02-23T11:36:31.429Z,24.53
2018-02-23T11:38:59.838Z,24.03
2018-02-23T11:41:28.192Z,23.90
2018-02-23T11:43:56.730Z,22.30
2018-02-23T11:46:25.036Z,23.73
2018-02-23T11:48:54.109Z,24.30
2018-02-23T11:51:22.438Z,24.03
2018-02-23T11:53:50.752Z,23.20
2018-02-23T11:56:19.068Z,23.90
2018-02-23T11:58:48.181Z,22.90
2018-02-23T12:01:16.516Z,23.70
2018-02-23T12:03:44.829Z,24.37
2018-02-23T12:06:14.217Z,25.83
2018-02-23T12:08:42.593Z,25.70
2018-02-23T12:11:11.866Z,25.13
2018-02-23T12:13:40.259Z,25.70
2018-02-23T12:16:08.570Z,24.70
2018-02-23T12:18:37.664Z,24.00
2018-02-23T12:21:06.029Z,26.17
2018-02-23T12:23:35.184Z,26.20
2018-02-23T12:26:03.487Z,26.23
2018-02-23T12:28:32.209Z,28.10
2018-02-23T12:31:00.531Z,26.87
2018-02-23T12:33:28.882Z,27.13
2018-02-23T12:35:57.240Z,27.03
2018-02-23T12:38:25.605Z,27.60
2018-02-23T12:40:53.953Z,27.20
2018-02-23T12:43:22.312Z,27.67
2018-02-23T12:45:50.653Z,28.07
2018-02-23T12:48:19.744Z,27.43
2018-02-23T12:50:48.992Z,27.10
2018-02-23T12:53:17.314Z,27.70
2018-02-23T12:55:46.433Z,27.83
2018-02-23T12:58:15.529Z,27.03
2018-02-23T13:00:44.635Z,27.40
2018-02-23T13:03:12.985Z,27.00
2018-02-23T13:05:42.136Z,27.00
2018-02-23T13:08:10.500Z,25.47
2018-02-23T13:10:38.853Z,25.60
2018-02-23T13:13:08.188Z,24.30
2018-02-23T13:15:36.522Z,24.67
2018-02-23T13:18:05.638Z,24.37
2018-02-23T13:20:34.004Z,25.53
2018-02-23T13:23:03.083Z,26.47
2018-02-23T13:25:31.403Z,25.33
2018-02-23T13:28:05.076Z,26.03
2018-02-23T13:30:34.157Z,25.13
2018-02-23T13:33:02.509Z,25.47
2018-02-23T13:35:31.233Z,26.33
2018-02-23T13:37:59.570Z,24.47
2018-02-23T13:40:30.713Z,23.70
2018-02-23T13:42:59.074Z,25.97
2018-02-23T13:45:27.385Z,25.53
2018-02-23T13:47:55.715Z,26.50
2018-02-23T13:50:24.065Z,24.40
2018-02-23T13:52:52.475Z,26.07
2018-02-23T13:55:20.819Z,23.90
2018-02-23T13:57:49.620Z,24.60
2018-02-23T14:00:17.943Z,24.10
2018-02-23T14:02:46.276Z,20.70
2018-02-23T14:05:15.428Z,21.90
2018-02-23T14:07:43.738Z,20.00
2018-02-23T14:10:12.073Z,20.17
2018-02-23T14:12:40.451Z,19.93
2018-02-23T14:15:08.783Z,20.20
2018-02-23T14:17:37.986Z,20.00
2018-02-23T14:20:06.691Z,19.30
2018-02-23T14:22:35.005Z,20.47
2018-02-23T14:25:03.352Z,20.50
2018-02-23T14:27:31.679Z,19.17
2018-02-23T14:30:00.005Z,19.70
2018-02-23T14:32:29.138Z,17.67
2018-02-23T14:34:57.687Z,16.90
2018-02-23T14:37:26.091Z,17.57
2018-02-23T14:39:54.432Z,18.30
2018-02-23T14:42:23.847Z,16.30
2018-02-23T14:44:52.301Z,16.67
2018-02-23T14:47:20.604Z,16.07
2018-02-23T14:50:07.335Z,16.67
2018-02-23T14:52:35.667Z,18.00
2018-02-23T14:55:03.982Z,15.10
2018-02-23T14:57:32.547Z,15.67
2018-02-23T15:00:01.665Z,14.77
2018-02-23T15:02:30.004Z,14.57
2018-02-23T15:04:58.382Z,14.77
2018-02-23T15:07:26.754Z,15.00
2018-02-23T15:09:55.108Z,15.53
2018-02-23T15:12:23.478Z,15.00
2018-02-23T15:14:51.841Z,14.60
2018-02-23T15:17:20.188Z,15.40
2018-02-23T15:19:49.806Z,15.67
2018-02-23T15:22:18.130Z,14.47
2018-02-23T15:24:46.440Z,14.93
2018-02-23T15:27:14.799Z,14.80
2018-02-23T15:29:43.140Z,14.40
2018-02-23T15:32:41.103Z,14.40
2018-02-23T15:35:10.523Z,14.10
2018-02-23T15:37:38.853Z,12.40
2018-02-23T15:40:07.379Z,12.63
2018-02-23T15:42:35.701Z,13.60
2018-02-23T15:45:04.034Z,12.90
2018-02-23T15:47:37.217Z,12.30
2018-02-23T15:53:15.138Z,13.67
2018-02-23T15:55:44.254Z,12.27
2018-02-23T16:01:12.212Z,12.10
2018-02-23T16:03:41.321Z,11.27
2018-02-23T16:06:09.638Z,11.00
2018-02-23T16:08:37.975Z,10.35
2018-02-23T16:11:07.109Z,10.25
2018-02-23T16:13:35.426Z,10.40
2018-02-23T16:16:03.761Z,10.90
2018-02-23T16:18:32.581Z,9.80
2018-02-23T16:21:00.915Z,10.70
2018-02-23T16:23:29.239Z,10.63
2018-02-23T16:25:57.605Z,10.10
2018-02-23T16:28:25.937Z,9.43
2018-02-23T16:30:54.267Z,9.57
2018-02-23T16:33:22.597Z,9.13
2018-02-23T16:35:51.236Z,10.48
2018-02-23T16:38:19.565Z,9.50
2018-02-23T16:40:48.118Z,10.68
2018-02-23T16:43:16.445Z,9.60
2018-02-23T16:45:44.776Z,9.27
2018-02-23T16:48:13.128Z,9.70
2018-02-23T16:50:41.462Z,10.00
2018-02-23T16:53:09.769Z,9.40
2018-02-23T16:55:38.148Z,9.30
2018-02-23T16:58:06.487Z,9.95
2018-02-23T17:00:34.830Z,8.35
2018-02-23T17:03:03.683Z,8.55
2018-02-23T17:05:32.032Z,8.30
2018-02-23T17:08:01.117Z,9.25
2018-02-23T17:10:30.225Z,7.93
2018-02-23T17:12:59.305Z,8.52
2018-02-23T17:15:28.381Z,9.00
2018-02-23T17:17:56.745Z,9.93
2018-02-23T17:20:25.076Z,9.30
2018-02-23T17:22:53.418Z,7.93
2018-02-23T17:25:22.080Z,7.97
2018-02-23T17:27:50.473Z,8.32
2018-02-23T17:30:18.817Z,8.18
2018-02-23T17:32:47.154Z,8.50
2018-02-23T17:35:15.450Z,7.87
2018-02-23T17:37:44.878Z,8.93
2018-02-23T17:40:13.220Z,8.90
2018-02-23T17:42:42.294Z,8.82
2018-02-23T17:45:10.644Z,8.75
2018-02-23T17:47:39.396Z,8.60
2018-02-23T17:50:07.742Z,9.68
2018-02-23T17:52:36.064Z,8.40
2018-02-23T17:55:04.429Z,8.57
2018-02-23T17:57:32.772Z,9.07
2018-02-23T18:00:01.099Z,8.75
2018-02-23T18:02:29.490Z,8.32
2018-02-23T18:04:57.810Z,9.25
2018-02-23T18:07:26.142Z,8.80
2018-02-23T18:09:55.469Z,8.38
2018-02-23T18:12:23.790Z,9.10
2018-02-23T18:14:52.128Z,9.45
2018-02-23T18:17:20.494Z,9.73
2018-02-23T18:19:50.169Z,9.32
2018-02-23T18:22:19.267Z,10.10
2018-02-23T18:24:48.367Z,10.05
2018-02-23T18:27:17.502Z,9.65
2018-02-23T18:29:45.837Z,9.25
2018-02-23T18:32:14.516Z,10.10
2018-02-23T18:34:42.869Z,9.75
2018-02-23T18:37:11.213Z,10.25
2018-02-23T18:39:40.092Z,10.40
2018-02-23T18:42:08.412Z,10.13
2018-02-23T18:44:36.741Z,9.85
2018-02-23T18:47:05.098Z,10.50
2018-02-23T18:49:34.187Z,11.80
2018-02-23T18:52:03.275Z,11.05
2018-02-23T18:54:32.313Z,11.55
2018-02-23T18:57:00.663Z,12.32
2018-02-23T18:59:29.777Z,10.93
2018-02-23T19:01:58.195Z,11.82
2018-02-23T19:04:26.534Z,11.93
2018-02-23T19:06:55.628Z,10.80
2018-02-23T19:09:24.764Z,11.88
2018-02-23T19:11:53.071Z,11.95
2018-02-23T19:14:21.395Z,11.05
2018-02-23T19:16:50.112Z,11.27
2018-02-23T19:19:18.435Z,10.68
2018-02-23T19:21:46.772Z,11.45
2018-02-23T19:24:15.172Z,11.45
2018-02-23T19:26:43.476Z,11.85
2018-02-23T19:29:12.609Z,10.50
2018-02-23T19:31:40.974Z,11.18
2018-02-23T19:34:09.289Z,11.68
2018-02-23T19:36:37.616Z,12.05
2018-02-23T19:39:06.366Z,10.85
2018-02-23T19:41:34.677Z,10.98
2018-02-23T19:44:03.034Z,10.80
2018-02-23T19:46:31.354Z,10.70
2018-02-23T19:48:59.672Z,10.43
2018-02-23T19:51:27.982Z,10.43
2018-02-23T19:53:56.350Z,10.52
2018-02-23T19:56:24.664Z,12.05
2018-02-23T19:58:52.965Z,10.75
2018-02-23T20:01:21.605Z,10.07
2018-02-23T20:03:50.748Z,10.93
2018-02-23T20:06:19.091Z,10.88
2018-02-23T20:08:47.743Z,10.05
2018-02-23T20:11:16.058Z,10.73
2018-02-23T20:13:44.423Z,10.75
2018-02-23T20:16:13.570Z,11.60
2018-02-23T20:18:41.936Z,12.10
2018-02-23T20:21:10.289Z,10.88
2018-02-23T20:23:39.863Z,12.60
2018-02-23T20:26:08.253Z,11.20
2018-02-23T20:28:36.779Z,12.32
2018-02-23T20:31:05.158Z,11.05
2018-02-23T20:33:33.500Z,11.20
2018-02-23T20:36:02.638Z,12.05
2018-02-23T20:38:31.039Z,11.75
2018-02-23T20:40:59.397Z,11.40
2018-02-23T20:43:27.746Z,11.45
2018-02-23T20:45:57.245Z,11.30
2018-02-23T20:48:27.062Z,12.25
2018-02-23T20:50:56.205Z,11.50
2018-02-23T20:53:24.616Z,12.05
2018-02-23T20:55:52.952Z,11.55
2018-02-23T20:58:21.296Z,12.25
2018-02-23T21:00:50.421Z,12.80
2018-02-23T21:03:18.843Z,12.65
2018-02-23T21:05:47.291Z,11.55
2018-02-23T21:08:16.085Z,12.07
2018-02-23T21:10:44.432Z,11.32
2018-02-23T21:13:12.756Z,11.48
2018-02-23T21:15:41.190Z,10.93
2018-02-23T21:18:09.571Z,12.68
2018-02-23T21:20:38.043Z,12.88
2018-02-23T21:23:07.231Z,11.63
2018-02-23T21:25:36.341Z,12.02
2018-02-23T21:28:05.435Z,10.85
2018-02-23T21:30:35.033Z,10.77
2018-02-23T21:33:03.368Z,10.90
2018-02-23T21:35:31.699Z,11.60
2018-02-23T21:38:00.860Z,10.23
2018-02-23T21:40:29.306Z,11.20
2018-02-23T21:42:57.621Z,11.35
2018-02-23T21:45:26.013Z,10.38
2018-02-23T21:47:55.182Z,10.75
2018-02-23T21:50:23.577Z,10.10
2018-02-23T21:52:52.853Z,10.85
2018-02-23T21:55:21.259Z,9.52
2018-02-23T21:57:49.658Z,9.10
2018-02-23T22:00:18.333Z,9.27
2018-02-23T22:02:46.667Z,9.57
2018-02-23T22:05:15.060Z,9.25
2018-02-23T22:07:43.420Z,10.27
2018-02-23T22:10:11.737Z,9.23
2018-02-23T22:12:40.058Z,8.55
2018-02-23T22:15:08.650Z,8.63
2018-02-23T22:17:36.998Z,8.82
2018-02-23T22:20:05.343Z,8.90
2018-02-23T22:22:33.709Z,9.40
2018-02-23T22:25:02.026Z,9.20
2018-02-23T22:27:30.344Z,8.25
2018-02-23T22:29:58.711Z,8.80
2018-02-23T22:32:27.813Z,8.85
2018-02-23T22:34:56.153Z,9.35
2018-02-23T22:37:25.002Z,8.55
2018-02-23T22:39:53.327Z,8.02
2018-02-23T22:42:21.632Z,8.38
2018-02-23T22:44:49.962Z,8.88
2018-02-23T22:47:19.063Z,8.05
2018-02-23T22:49:48.157Z,7.55
2018-02-23T22:52:16.493Z,8.20
2018-02-23T22:54:44.837Z,8.02
2018-02-23T22:57:13.164Z,7.47
2018-02-23T22:59:41.638Z,8.10
2018-02-23T23:02:10.042Z,7.35
2018-02-23T23:04:38.503Z,7.78
2018-02-23T23:07:14.625Z,7.90
2018-02-23T23:09:43.012Z,7.45
2018-02-23T23:12:12.109Z,7.80
2018-02-23T23:14:41.268Z,8.60
2018-02-23T23:17:09.580Z,8.10
2018-02-23T23:19:38.673Z,7.45
2018-02-23T23:22:08.600Z,8.25
2018-02-23T23:24:36.955Z,7.80
2018-02-23T23:27:05.291Z,8.57
2018-02-23T23:29:33.669Z,7.30
2018-02-23T23:32:01.999Z,6.82
2018-02-23T23:34:30.357Z,6.80
2018-02-23T23:36:58.715Z,7.68
2018-02-23T23:39:31.878Z,6.50
2018-02-23T23:42:01.580Z,6.68
2018-02-23T23:44:29.878Z,6.70
2018-02-23T23:46:58.221Z,8.13
2018-02-23T23:49:27.324Z,7.22
2018-02-23T23:51:56.413Z,6.40
2018-02-23T23:54:25.541Z,7.70
2018-02-23T23:56:53.871Z,7.35
2018-02-23T23:59:22.175Z,7.30
